Terminal Aerodrome Forecast
Issued by NWS

Home | Current Version | Previous Version | Text Only | Print | Product List | Glossary On
Versions: 1 2 3 4 5 6 7 8 9 10 11 12 13 14 15 16
893
FTUS42 KTBW 300536
TAFPGD
TAF
KPGD 300536Z 3006/3106 VRB03KT P6SM SCT060 SCT250
      TEMPO 3006/3008 BKN060
     FM301400 23005KT P6SM SCT020 BKN250
     FM301700 25007KT P6SM SCT040 BKN250
     FM302100 28007KT P6SM VCTS BKN050CB=

USA.gov is the U.S. government's official web portal to all federal, state and local government web resources and services.